»·PEaware :: SWA1882 KRNO-KPSP

SWA1882 :: KRNO-KPSP

FLIGHT INFORMATION

Flight Status: Arrived
Operator:
Southwest Airlines
More flights by this operator :: More flights under this callsign
Pilot: Max W. (2591)
Aircraft: BOEING 737-800
(B738)
More flights by this aircraft type
Origin: KRNO Reno/Tahoe Intl
United States
Destination: KPSP Palm Springs Intl
United States
More flights between these airports :: More routes between these airports
Route: +ZEFFR6 DARBI FRA LANDO GLRNO SIZLR3
File this flight plan on PilotEdge
Remarks:
Altitude:
(Current/Filed)
40,000ft
Speed:
(Current/Filed)
450kts
Departed: 14-Apr-18 06:37 PM
Arrived: 14-Apr-18 07:45 PM
Distance/Time
Traveled:
375nm/1:08
Distance/Time
To Go:
Arrived

Flight Plot

Page will automatically refresh every two minutes.

Flight plan parsing failed; only flown route is shown


Map Options




Map Legend


Flown Route
Filed Route
Departure Airport
Arrival Airport
Navaid (VOR, NDB)
Fix

Horizontal Profiles

Position Reports

Time Latitude Longitude Heading Altitude Ground
Speed
14-Apr-18 18:08 39.503192 -119.772487 179 4422ft 0kts
14-Apr-18 18:09 39.503192 -119.772487 179 4422ft 0kts
14-Apr-18 18:10 39.503192 -119.772487 179 4423ft 0kts
14-Apr-18 18:11 39.503192 -119.772487 179 4423ft 0kts
14-Apr-18 18:12 39.503192 -119.772487 179 4423ft 0kts
14-Apr-18 18:13 39.503192 -119.772487 179 4423ft 0kts
14-Apr-18 18:14 39.503192 -119.772487 179 4423ft 0kts
14-Apr-18 18:15 39.503192 -119.772487 179 4423ft 0kts
14-Apr-18 18:16 39.503192 -119.772487 179 4423ft 0kts
14-Apr-18 18:17 39.503192 -119.772487 179 4423ft 0kts
14-Apr-18 18:18 39.503192 -119.772487 179 4423ft 0kts
14-Apr-18 18:19 39.503192 -119.772487 179 4423ft 0kts
14-Apr-18 18:20 39.503192 -119.772487 179 4423ft 0kts
14-Apr-18 18:21 39.503192 -119.772487 179 4423ft 0kts
14-Apr-18 18:22 39.503192 -119.772487 179 4423ft 0kts
14-Apr-18 18:23 39.503192 -119.772487 179 4423ft 0kts
14-Apr-18 18:24 39.503192 -119.772487 179 4423ft 0kts
14-Apr-18 18:25 39.503763 -119.772488 179 4423ft 2kts
14-Apr-18 18:26 39.503860 -119.772489 179 4423ft 0kts
14-Apr-18 18:27 39.503859 -119.772489 179 4423ft 0kts
14-Apr-18 18:28 39.503857 -119.772489 179 4423ft 0kts
14-Apr-18 18:29 39.503856 -119.772489 179 4423ft 0kts
14-Apr-18 18:30 39.503854 -119.772489 179 4423ft 0kts
14-Apr-18 18:31 39.503674 -119.772005 70 4423ft 0kts
14-Apr-18 18:32 39.503772 -119.771678 58 4423ft 10kts
14-Apr-18 18:33 39.507644 -119.771486 358 4423ft 5kts
14-Apr-18 18:34 39.510993 -119.771453 358 4423ft 14kts
14-Apr-18 18:35 39.513679 -119.769470 120 4423ft 10kts
14-Apr-18 18:36 39.510684 -119.769237 180 4423ft 59kts
14-Apr-18 18:37 39.467398 -119.768550 183 6753ft 169kts
14-Apr-18 18:38 39.411483 -119.769358 182 8739ft 250kts
14-Apr-18 18:39 39.333873 -119.769582 183 11568ft 303kts
14-Apr-18 18:40 39.240276 -119.766771 181 14216ft 355kts
14-Apr-18 18:41 39.138661 -119.762811 183 17668ft 375kts
14-Apr-18 18:42 39.031672 -119.758789 184 20656ft 395kts
14-Apr-18 18:43 38.918940 -119.754597 184 23235ft 415kts
14-Apr-18 18:44 38.800925 -119.750180 185 25544ft 431kts
14-Apr-18 18:45 38.679110 -119.745642 186 27584ft 444kts
14-Apr-18 18:46 38.574584 -119.741752 186 29061ft 455kts
14-Apr-18 18:47 38.446774 -119.737017 186 30646ft 466kts
14-Apr-18 18:48 38.316756 -119.731013 182 32523ft 468kts
14-Apr-18 18:49 38.166784 -119.685162 173 34642ft 476kts
14-Apr-18 18:50 38.039885 -119.640260 173 36353ft 471kts
14-Apr-18 18:51 37.914183 -119.595958 173 37882ft 467kts
14-Apr-18 18:52 37.809637 -119.559209 173 38986ft 464kts
14-Apr-18 18:53 37.685334 -119.515745 173 40164ft 463kts
14-Apr-18 18:54 37.562535 -119.507371 197 41204ft 432kts
14-Apr-18 18:55 37.442499 -119.530561 197 41241ft 437kts
14-Apr-18 18:56 37.322622 -119.553711 196 41223ft 437kts
14-Apr-18 18:57 37.202391 -119.576716 196 41204ft 437kts
14-Apr-18 18:58 37.079344 -119.581158 174 41188ft 463kts
14-Apr-18 18:59 36.956719 -119.525257 166 41180ft 472kts
14-Apr-18 19:00 36.834145 -119.466287 166 41176ft 471kts
14-Apr-18 19:01 36.711812 -119.407702 166 41174ft 471kts
14-Apr-18 19:02 36.589054 -119.349185 166 41176ft 471kts
14-Apr-18 19:03 36.466507 -119.291068 166 41166ft 471kts
14-Apr-18 19:04 36.344240 -119.233178 166 41163ft 471kts
14-Apr-18 19:05 36.221604 -119.175503 166 41163ft 471kts
14-Apr-18 19:06 36.098980 -119.118013 166 41168ft 472kts
14-Apr-18 19:07 35.976084 -119.060575 166 41169ft 471kts
14-Apr-18 19:08 35.853606 -119.003486 166 41168ft 471kts
14-Apr-18 19:09 35.731099 -118.946571 166 41168ft 471kts
14-Apr-18 19:10 35.607950 -118.889550 166 41162ft 472kts
14-Apr-18 19:11 35.485082 -118.832846 166 41164ft 471kts
14-Apr-18 19:12 35.362634 -118.776519 166 41177ft 471kts
14-Apr-18 19:13 35.239401 -118.719895 166 41206ft 472kts
14-Apr-18 19:14 35.116735 -118.663874 166 39796ft 470kts
14-Apr-18 19:15 34.997178 -118.596018 149 36836ft 486kts
14-Apr-18 19:16 34.898616 -118.478935 138 33526ft 499kts
14-Apr-18 19:17 34.799602 -118.359057 138 30125ft 500kts
14-Apr-18 19:18 34.712045 -118.230714 129 27913ft 478kts
14-Apr-18 19:19 34.634298 -118.109612 130 25592ft 443kts
14-Apr-18 19:20 34.564536 -117.990882 118 22902ft 422kts
14-Apr-18 19:21 34.513334 -117.863711 116 21743ft 418kts
14-Apr-18 19:22 34.462221 -117.739102 117 20635ft 408kts
14-Apr-18 19:23 34.412565 -117.617263 116 19544ft 399kts
14-Apr-18 19:24 34.363609 -117.497862 116 18334ft 392kts
14-Apr-18 19:25 34.315857 -117.381937 117 17254ft 381kts
14-Apr-18 19:26 34.266286 -117.270293 119 16232ft 373kts
14-Apr-18 19:27 34.215730 -117.162114 119 16017ft 358kts
14-Apr-18 19:28 34.169038 -117.063057 120 16032ft 329kts
14-Apr-18 19:29 34.123327 -116.966198 120 16079ft 333kts
14-Apr-18 19:30 34.078685 -116.870722 119 15245ft 311kts
14-Apr-18 19:31 34.037895 -116.783663 119 14248ft 292kts
14-Apr-18 19:32 33.998641 -116.701598 119 13189ft 278kts
14-Apr-18 19:33 33.960022 -116.622588 119 11652ft 269kts
14-Apr-18 19:34 33.924365 -116.549374 119 10751ft 232kts
14-Apr-18 19:35 33.892498 -116.482974 119 9120ft 223kts
14-Apr-18 19:36 33.862439 -116.419082 119 7433ft 215kts
14-Apr-18 19:37 33.833456 -116.357329 119 5718ft 209kts
14-Apr-18 19:38 33.796457 -116.311839 193 4047ft 202kts
14-Apr-18 19:39 33.757647 -116.354947 233 3194ft 186kts
14-Apr-18 19:40 33.743781 -116.409809 277 2555ft 164kts
14-Apr-18 19:41 33.766122 -116.449286 324 1972ft 147kts
14-Apr-18 19:42 33.798248 -116.479589 325 1135ft 148kts
14-Apr-18 19:43 33.830198 -116.508151 323 485ft 107kts
14-Apr-18 19:44 33.832733 -116.512200 173 485ft 0kts
14-Apr-18 19:45 33.830797 -116.510824 143 485ft 18kts
14-Apr-18 19:46 33.828094 -116.508225 138 485ft 6kts
14-Apr-18 19:47 33.824274 -116.506548 156 485ft 9kts
14-Apr-18 19:48 33.823852 -116.506516 191 485ft 0kts
14-Apr-18 19:49 33.823852 -116.506516 191 485ft 0kts
14-Apr-18 19:50 33.823852 -116.506516 191 485ft 0kts
14-Apr-18 19:51 33.823852 -116.506516 191 485ft 0kts
14-Apr-18 19:52 33.823852 -116.506516 191 485ft 0kts
14-Apr-18 19:53 33.823852 -116.506516 191 485ft 0kts
14-Apr-18 19:54 33.823852 -116.506516 191 485ft 0kts
14-Apr-18 19:55 33.823852 -116.506516 191 485ft 0kts
14-Apr-18 19:56 33.823852 -116.506516 191 485ft 0kts
14-Apr-18 19:57 33.823852 -116.506516 191 485ft 0kts
14-Apr-18 19:58 33.823852 -116.506516 191 485ft 0kts

Navigation Log

Ident Type
Flight plan parsing failed, navigation log unavailable